Time;durP1;ratioP1;P1;durP2;ratioP2;P2;SDS_P1;SDS_P2;PMS_P1;PMS_P2;Temp;Humidity;BMP_temperature;BMP_pressure;BME280_temperature;BME280_humidity;BME280_pressure;Samples;Min_cycle;Max_cycle;Signal;HPM_P1;HPM_P2
2020/12/22 00:00:34;;;;;;;9.35;6.53;;;;;;;-0.44;76.97;100863.86;1737130;82;21110;-78
2020/12/22 00:03:02;;;;;;;7.58;6.20;;;;;;;-0.41;76.91;100869.06;1767539;81;21115;-78
2020/12/22 00:05:31;;;;;;;7.62;5.97;;;;;;;-0.44;76.65;100869.84;1737151;82;21603;-78
2020/12/22 00:07:58;;;;;;;9.13;6.00;;;;;;;-0.48;76.71;100867.16;1737104;82;21176;-78
2020/12/22 00:10:26;;;;;;;7.97;6.37;;;;;;;-0.52;76.82;100867.48;1767458;80;21063;-78
2020/12/22 00:12:54;;;;;;;8.35;6.28;;;;;;;-0.55;76.80;100874.21;1767560;81;21103;-78
2020/12/22 00:15:21;;;;;;;6.97;5.78;;;;;;;-0.58;76.85;100872.84;1767450;80;21181;-78
2020/12/22 00:17:50;;;;;;;7.62;6.28;;;;;;;-0.62;77.05;100873.21;1765795;79;21175;-78
2020/12/22 00:20:18;;;;;;;7.70;6.17;;;;;;;-0.65;77.11;100868.02;1767542;81;21366;-78
2020/12/22 00:22:49;;;;;;;8.00;6.12;;;;;;;-0.65;77.33;100872.26;1767465;81;21083;-77
2020/12/22 00:25:17;;;;;;;7.12;5.97;;;;;;;-0.64;77.40;100868.88;1767710;80;21595;-78
2020/12/22 00:27:46;;;;;;;7.70;5.78;;;;;;;-0.65;77.36;100863.31;1767108;80;21070;-78
2020/12/22 00:30:13;;;;;;;7.45;6.30;;;;;;;-0.68;77.38;100865.38;1767577;81;21139;-78
2020/12/22 00:32:41;;;;;;;8.35;6.30;;;;;;;-0.69;77.40;100871.31;1767499;81;21359;-78
2020/12/22 00:35:10;;;;;;;6.83;5.90;;;;;;;-0.70;77.31;100867.02;1767465;79;21487;-78
2020/12/22 00:37:37;;;;;;;8.35;6.50;;;;;;;-0.75;77.30;100872.41;1767517;81;21504;-78
2020/12/22 00:40:05;;;;;;;10.35;6.83;;;;;;;-0.76;77.54;100869.41;1767530;81;21987;-78
2020/12/22 00:42:33;;;;;;;9.93;7.42;;;;;;;-0.75;77.57;100873.28;1767538;81;21130;-78
2020/12/22 00:45:01;;;;;;;9.98;6.47;;;;;;;-0.71;77.60;100867.84;1767516;81;21579;-78
2020/12/22 00:47:28;;;;;;;7.65;5.70;;;;;;;-0.70;77.37;100867.02;1767492;81;21063;-78
2020/12/22 00:49:56;;;;;;;6.62;5.80;;;;;;;-0.72;77.50;100875.92;1767480;81;21056;-77
2020/12/22 00:52:24;;;;;;;7.47;6.12;;;;;;;-0.70;77.44;100867.02;1767509;81;21892;-78
2020/12/22 00:54:52;;;;;;;8.13;6.00;;;;;;;-0.72;77.38;100868.25;1767533;81;21111;-78
2020/12/22 00:57:20;;;;;;;7.47;5.75;;;;;;;-0.69;77.35;100868.75;1767611;80;23612;-78
2020/12/22 00:59:58;;;;;;;8.25;5.92;;;;;;;-0.68;77.27;100869.62;1759734;80;21079;-78
2020/12/22 01:02:27;;;;;;;7.83;5.60;;;;;;;-0.72;77.04;100867.39;1758945;81;21047;-78
2020/12/22 01:04:54;;;;;;;7.35;5.40;;;;;;;-0.79;76.95;100865.08;1758842;81;21968;-78
2020/12/22 01:07:22;;;;;;;10.53;6.45;;;;;;;-0.83;77.28;100856.91;1758899;81;21127;-78
2020/12/22 01:09:50;;;;;;;6.90;5.50;;;;;;;-0.82;77.26;100860.33;1758898;81;22201;-78
2020/12/22 01:12:18;;;;;;;7.72;5.50;;;;;;;-0.82;77.38;100859.05;1758818;81;21769;-78
2020/12/22 01:14:46;;;;;;;9.08;6.62;;;;;;;-0.83;77.36;100862.42;1758895;81;21047;-77
2020/12/22 01:17:14;;;;;;;7.22;5.40;;;;;;;-0.81;77.42;100864.61;1758788;81;21092;-78
2020/12/22 01:19:41;;;;;;;6.22;5.58;;;;;;;-0.79;77.15;100861.66;1758864;80;21143;-78
2020/12/22 01:22:09;;;;;;;6.95;5.65;;;;;;;-0.83;77.09;100860.73;1758852;81;21910;-77
2020/12/22 01:24:37;;;;;;;8.48;6.42;;;;;;;-0.85;77.21;100856.41;1758785;81;21091;-78
2020/12/22 01:27:05;;;;;;;7.80;6.30;;;;;;;-0.90;77.25;100850.30;1758867;81;21595;-78
2020/12/22 01:29:32;;;;;;;6.72;5.78;;;;;;;-0.93;77.56;100851.08;1758785;80;21127;-79
2020/12/22 01:32:00;;;;;;;7.10;5.33;;;;;;;-0.92;77.24;100848.12;1758837;81;21107;-77
2020/12/22 01:34:27;;;;;;;7.67;5.33;;;;;;;-0.97;77.10;100847.13;1758850;81;21312;-78
2020/12/22 01:36:55;;;;;;;7.75;5.92;;;;;;;-0.98;77.07;100859.44;1758935;81;21520;-78
2020/12/22 01:39:22;;;;;;;10.13;6.05;;;;;;;-0.99;77.20;100853.87;1758895;81;21566;-78
2020/12/22 01:41:50;;;;;;;7.83;6.25;;;;;;;-0.95;77.39;100850.59;1758884;81;21166;-78
2020/12/22 01:44:18;;;;;;;7.10;5.87;;;;;;;-0.90;77.17;100846.47;1758969;81;21500;-78
2020/12/22 01:46:48;;;;;;;7.78;5.30;;;;;;;-0.88;77.19;100847.37;1758849;81;21208;-78
2020/12/22 01:49:24;;;;;;;6.85;5.90;;;;;;;-0.83;77.10;100845.82;1758818;81;21075;-78
2020/12/22 01:51:56;;;;;;;7.53;5.72;;;;;;;-0.80;76.94;100850.58;1758872;81;21591;-78
2020/12/22 01:54:26;;;;;;;9.25;6.33;;;;;;;-0.76;76.51;100851.52;1759032;81;21127;-78
2020/12/22 01:56:53;;;;;;;9.80;6.03;;;;;;;-0.80;76.29;100853.57;1759085;80;21154;-77
2020/12/22 01:59:21;;;;;;;8.00;6.45;;;;;;;-0.81;76.50;100854.39;1758767;81;22272;-78
2020/12/22 02:01:50;;;;;;;11.50;7.08;;;;;;;-0.83;76.44;100856.91;1758781;81;21075;-78
2020/12/22 02:04:18;;;;;;;8.65;6.17;;;;;;;-0.83;76.49;100850.52;1758848;81;21068;-78
2020/12/22 02:06:46;;;;;;;8.53;5.95;;;;;;;-0.82;76.47;100852.66;1758838;81;21075;-78
2020/12/22 02:09:14;;;;;;;13.50;6.20;;;;;;;-0.82;76.36;100856.50;1758825;81;21115;-77
2020/12/22 02:11:43;;;;;;;6.90;5.60;;;;;;;-0.84;76.32;100859.41;1758810;80;21456;-78
2020/12/22 02:14:11;;;;;;;9.55;6.42;;;;;;;-0.87;76.24;100858.92;1758783;81;21186;-78
2020/12/22 02:16:38;;;;;;;7.55;5.67;;;;;;;-0.90;76.27;100860.11;1758827;81;21453;-78
2020/12/22 02:19:08;;;;;;;10.08;7.00;;;;;;;-0.93;76.45;100852.36;1756914;81;21071;-78
2020/12/22 02:21:35;;;;;;;7.17;6.08;;;;;;;-0.90;76.52;100854.13;1739835;81;21063;-77
2020/12/22 02:24:03;;;;;;;9.03;6.62;;;;;;;-0.90;76.41;100855.00;1758792;80;21504;-78
2020/12/22 02:26:31;;;;;;;7.90;5.97;;;;;;;-0.93;76.31;100851.49;1758758;81;21170;-78
2020/12/22 02:28:58;;;;;;;10.05;7.50;;;;;;;-0.97;76.10;100850.95;1758813;81;21083;-78
2020/12/22 02:31:26;;;;;;;8.23;7.20;;;;;;;-1.04;76.34;100860.16;1758806;81;21060;-78
2020/12/22 02:33:54;;;;;;;8.70;5.97;;;;;;;-1.04;76.52;100862.71;1758825;81;21135;-78
2020/12/22 02:36:21;;;;;;;9.00;6.60;;;;;;;-1.06;76.40;100857.56;1758784;81;21377;-78
2020/12/22 02:38:49;;;;;;;9.30;7.40;;;;;;;-1.09;76.36;100861.30;1758842;81;21909;-78
2020/12/22 02:41:17;;;;;;;9.25;7.10;;;;;;;-1.11;76.59;100860.39;1758801;81;21485;-78
2020/12/22 02:43:45;;;;;;;10.20;7.67;;;;;;;-1.14;76.67;100856.47;1758813;81;21548;-78
2020/12/22 02:46:14;;;;;;;9.35;7.47;;;;;;;-1.16;76.79;100858.52;1758821;81;21126;-78
2020/12/22 02:48:41;;;;;;;10.15;7.58;;;;;;;-1.17;76.92;100862.77;1758878;81;22144;-77
2020/12/22 02:51:09;;;;;;;12.15;7.87;;;;;;;-1.16;76.87;100856.84;1758895;81;21142;-78
2020/12/22 02:53:36;;;;;;;11.43;8.23;;;;;;;-1.17;76.90;100860.20;1758924;81;21056;-78
2020/12/22 02:56:05;;;;;;;12.65;7.60;;;;;;;-1.15;76.95;100854.73;1758861;80;21134;-78
2020/12/22 02:58:32;;;;;;;8.35;7.15;;;;;;;-1.16;76.87;100858.52;1758738;81;21142;-78
2020/12/22 03:01:00;;;;;;;9.30;7.72;;;;;;;-1.15;76.57;100853.46;1766947;81;21851;-78
2020/12/22 03:03:27;;;;;;;8.00;7.17;;;;;;;-1.14;76.54;100850.09;1767368;80;21083;-78
2020/12/22 03:05:55;;;;;;;9.75;8.10;;;;;;;-1.14;76.09;100847.53;1767473;80;21094;-78
2020/12/22 03:08:23;;;;;;;9.00;8.10;;;;;;;-1.16;76.33;100845.76;1730677;83;22007;-78
2020/12/22 03:10:51;;;;;;;8.78;7.87;;;;;;;-1.15;76.32;100846.22;1730718;83;21195;-78
2020/12/22 03:13:19;;;;;;;10.38;8.18;;;;;;;-1.15;76.42;100843.66;1730748;83;21221;-78
2020/12/22 03:15:47;;;;;;;7.95;7.12;;;;;;;-1.15;76.42;100844.53;1730531;83;21087;-78
2020/12/22 03:18:14;;;;;;;14.45;7.62;;;;;;;-1.10;76.45;100844.25;1730708;83;21103;-78
2020/12/22 03:20:42;;;;;;;8.33;6.67;;;;;;;-1.04;76.00;100839.73;1730794;83;21134;-78
2020/12/22 03:23:10;;;;;;;7.62;6.83;;;;;;;-1.14;75.38;100837.73;1730751;83;21510;-78
2020/12/22 03:25:37;;;;;;;11.43;7.75;;;;;;;-1.27;75.65;100839.50;1730719;83;21293;-78
2020/12/22 03:28:05;;;;;;;10.15;7.50;;;;;;;-1.37;75.83;100840.92;1730652;83;21146;-78
2020/12/22 03:30:32;;;;;;;9.15;7.10;;;;;;;-1.39;75.72;100843.42;1730666;83;21127;-78
2020/12/22 03:33:00;;;;;;;16.27;7.37;;;;;;;-1.47;75.66;100839.81;1730796;83;21071;-78
2020/12/22 03:35:28;;;;;;;8.43;6.85;;;;;;;-1.53;76.04;100848.96;1730720;83;21067;-78
2020/12/22 03:37:57;;;;;;;13.75;7.03;;;;;;;-1.56;76.20;100853.56;1730704;83;21215;-78
2020/12/22 03:40:26;;;;;;;8.75;6.85;;;;;;;-1.57;76.11;100849.27;1730726;83;21103;-78
2020/12/22 03:42:54;;;;;;;10.32;7.15;;;;;;;-1.61;75.99;100850.03;1730815;83;21124;-78
2020/12/22 03:45:22;;;;;;;8.80;6.95;;;;;;;-1.61;76.32;100844.06;1730842;83;21095;-78
2020/12/22 03:47:50;;;;;;;8.25;6.65;;;;;;;-1.54;76.50;100849.38;1730894;83;21071;-78
2020/12/22 03:50:19;;;;;;;10.28;6.60;;;;;;;-1.53;76.26;100838.75;1729911;83;21352;-78
2020/12/22 03:52:47;;;;;;;7.55;6.22;;;;;;;-1.50;76.35;100845.23;1730847;83;21079;-77
2020/12/22 03:55:15;;;;;;;8.73;6.15;;;;;;;-1.43;76.46;100836.53;1730813;83;21547;-78
2020/12/22 03:57:43;;;;;;;10.82;7.85;;;;;;;-1.39;75.99;100832.35;1731001;83;21603;-77
2020/12/22 04:00:13;;;;;;;8.18;6.85;;;;;;;-1.39;75.96;100831.08;1726660;82;21229;-78
2020/12/22 04:02:41;;;;;;;11.35;7.12;;;;;;;-1.41;75.76;100826.37;1722076;83;21374;-78
2020/12/22 04:05:11;;;;;;;8.83;6.87;;;;;;;-1.45;75.57;100825.82;1722038;82;21099;-78
2020/12/22 04:07:39;;;;;;;12.45;6.47;;;;;;;-1.50;75.75;100823.13;1722070;82;21078;-78
2020/12/22 04:10:07;;;;;;;7.00;6.17;;;;;;;-1.46;75.91;100836.84;1722018;83;21103;-78
2020/12/22 04:12:36;;;;;;;12.73;7.20;;;;;;;-1.45;75.90;100833.06;1722040;83;21100;-78
2020/12/22 04:15:05;;;;;;;8.88;5.87;;;;;;;-1.39;75.97;100826.84;1722012;82;21199;-78
2020/12/22 04:17:33;;;;;;;9.10;5.80;;;;;;;-1.34;75.73;100834.63;1722037;83;21175;-77
2020/12/22 04:20:02;;;;;;;7.97;5.85;;;;;;;-1.34;75.72;100833.35;1722003;83;21159;-78
2020/12/22 04:22:30;;;;;;;7.92;5.85;;;;;;;-1.35;75.62;100832.03;1721931;83;21100;-76
2020/12/22 04:24:57;;;;;;;10.38;6.45;;;;;;;-1.41;75.68;100827.23;1722023;83;21084;-76
2020/12/22 04:27:25;;;;;;;12.37;6.97;;;;;;;-1.42;75.73;100827.19;1722073;83;22266;-76
2020/12/22 04:29:53;;;;;;;8.50;6.37;;;;;;;-1.37;75.94;100820.91;1721940;83;21163;-76
2020/12/22 04:32:20;;;;;;;8.63;6.47;;;;;;;-1.29;75.64;100829.66;1722061;83;21504;-76
2020/12/22 04:34:48;;;;;;;14.58;6.45;;;;;;;-1.30;75.53;100830.48;1721935;83;21071;-76
2020/12/22 04:37:15;;;;;;;11.35;6.62;;;;;;;-1.31;75.47;100832.58;1722019;83;21647;-76
2020/12/22 04:39:43;;;;;;;8.83;6.15;;;;;;;-1.29;75.52;100830.52;1721980;83;21322;-77
2020/12/22 04:42:13;;;;;;;7.80;6.00;;;;;;;-1.31;75.32;100827.06;1721911;83;21198;-77
2020/12/22 04:44:41;;;;;;;9.93;6.15;;;;;;;-1.36;75.38;100828.61;1722109;82;21623;-78
2020/12/22 04:47:10;;;;;;;8.90;5.28;;;;;;;-1.40;75.49;100832.76;1722024;83;21067;-78
2020/12/22 04:49:41;;;;;;;9.15;6.28;;;;;;;-1.37;75.63;100828.56;1721925;83;21513;-78
2020/12/22 04:52:09;;;;;;;10.08;6.53;;;;;;;-1.42;75.50;100830.61;1721993;83;21384;-78
2020/12/22 04:54:37;;;;;;;7.80;6.62;;;;;;;-1.47;75.72;100829.60;1721995;83;21099;-78
2020/12/22 04:57:05;;;;;;;6.70;5.50;;;;;;;-1.47;76.03;100828.33;1721953;83;21135;-78
2020/12/22 04:59:33;;;;;;;11.25;5.75;;;;;;;-1.41;76.01;100830.20;1721786;82;21150;-76
2020/12/22 05:02:01;;;;;;;6.87;5.50;;;;;;;-1.39;75.91;100828.11;1722000;82;21162;-76
2020/12/22 05:04:38;;;;;;;7.45;5.80;;;;;;;-1.33;76.08;100825.28;1695584;83;21859;-78
2020/12/22 05:07:08;;;;;;;7.45;5.95;;;;;;;-1.25;75.80;100821.27;1721949;82;21091;-76
2020/12/22 05:09:37;;;;;;;8.83;5.80;;;;;;;-1.26;75.60;100831.03;1721972;83;21115;-77
2020/12/22 05:12:05;;;;;;;9.28;5.97;;;;;;;-1.32;75.45;100828.30;1722061;83;21536;-77
2020/12/22 05:14:33;;;;;;;7.42;5.00;;;;;;;-1.36;75.46;100825.20;1695690;83;21134;-76
2020/12/22 05:17:00;;;;;;;10.23;5.65;;;;;;;-1.34;75.53;100828.66;1721876;83;21396;-76
2020/12/22 05:19:35;;;;;;;6.35;4.97;;;;;;;-1.33;75.54;100824.88;1721904;82;21520;-77
2020/12/22 05:21:58;;;;;;;12.10;5.58;;;;;;;-1.39;75.54;100824.28;1721483;83;21524;-77
2020/12/22 05:24:26;;;;;;;10.60;5.95;;;;;;;-1.47;75.76;100820.67;1722029;82;21068;-77
2020/12/22 05:26:53;;;;;;;8.10;4.70;;;;;;;-1.47;75.86;100824.91;1695806;83;21718;-77
2020/12/22 05:29:21;;;;;;;7.92;5.55;;;;;;;-1.49;75.76;100824.00;1695784;83;21399;-77
2020/12/22 05:31:50;;;;;;;17.52;8.28;;;;;;;-1.50;75.79;100823.54;1695506;83;21108;-77
2020/12/22 05:34:21;;;;;;;9.93;6.35;;;;;;;-1.54;75.91;100817.48;1722002;83;21084;-77
2020/12/22 05:36:49;;;;;;;10.05;5.65;;;;;;;-1.53;76.14;100818.34;1721965;82;21059;-77
2020/12/22 05:39:18;;;;;;;10.93;5.05;;;;;;;-1.52;76.09;100832.42;1722028;83;21067;-77
2020/12/22 05:41:45;;;;;;;21.17;6.65;;;;;;;-1.53;75.60;100826.00;1721987;83;21509;-77
2020/12/22 05:44:14;;;;;;;15.65;6.37;;;;;;;-1.59;75.70;100827.09;1721935;83;21134;-79
2020/12/22 05:46:41;;;;;;;13.30;6.42;;;;;;;-1.60;75.96;100827.50;1721939;83;21187;-78
2020/12/22 05:49:10;;;;;;;24.20;7.55;;;;;;;-1.57;75.89;100817.80;1721982;83;21473;-79
2020/12/22 05:51:45;;;;;;;15.53;9.80;;;;;;;-1.53;75.94;100825.59;1721993;83;21061;-78
2020/12/22 05:54:15;;;;;;;15.75;6.35;;;;;;;-1.50;75.78;100818.03;1695714;83;21221;-77
2020/12/22 05:56:45;;;;;;;19.90;7.22;;;;;;;-1.46;75.67;100817.70;1721908;83;21143;-78
2020/12/22 05:59:20;;;;;;;23.22;6.22;;;;;;;-1.47;75.48;100814.70;1721965;83;21159;-78
2020/12/22 06:01:48;;;;;;;16.55;7.33;;;;;;;-1.45;75.50;100813.06;1733528;81;21082;-78
2020/12/22 06:04:19;;;;;;;16.00;6.37;;;;;;;-1.43;75.44;100812.28;1735258;82;21071;-78
2020/12/22 06:06:49;;;;;;;17.67;7.10;;;;;;;-1.43;75.68;100811.02;1728817;82;21213;-77
2020/12/22 06:09:20;;;;;;;15.35;8.83;;;;;;;-1.42;75.71;100810.60;1705161;82;21536;-79
2020/12/22 06:11:48;;;;;;;12.28;5.80;;;;;;;-1.42;75.36;100811.88;1703932;82;21103;-78
2020/12/22 06:14:22;;;;;;;9.70;4.92;;;;;;;-1.49;75.02;100807.00;1735056;82;21062;-79
2020/12/22 06:16:50;;;;;;;13.30;5.85;;;;;;;-1.54;75.02;100812.38;1734136;82;21646;-80
2020/12/22 06:19:18;;;;;;;19.40;6.83;;;;;;;-1.57;74.93;100814.83;1702379;82;22295;-78
2020/12/22 06:21:49;;;;;;;25.72;9.00;;;;;;;-1.58;75.06;100815.66;1732008;82;21118;-80
2020/12/22 06:24:19;;;;;;;36.83;10.50;;;;;;;-1.54;75.07;100812.78;1735089;82;21091;-80
2020/12/22 06:27:05;;;;;;;9.95;4.95;;;;;;;-1.51;75.25;100806.09;1758386;81;21190;-78
2020/12/22 06:29:44;;;;;;;23.15;10.15;;;;;;;-1.42;74.64;100808.05;1755597;80;21099;-77
2020/12/22 06:32:25;;;;;;;13.78;7.55;;;;;;;-1.42;74.53;100808.05;1756061;80;22205;-77
2020/12/22 06:34:55;;;;;;;20.80;6.78;;;;;;;-1.40;74.42;100805.97;1770383;79;21634;-71
2020/12/22 06:37:41;;;;;;;20.92;6.60;;;;;;;-1.41;74.06;100797.89;1790533;80;21174;-79
2020/12/22 06:40:15;;;;;;;10.82;5.17;;;;;;;-1.33;74.12;100807.42;1698469;82;21062;-73
2020/12/22 06:42:47;;;;;;;16.12;6.33;;;;;;;-1.28;73.71;100811.84;1749990;81;21194;-71
2020/12/22 06:45:28;;;;;;;20.12;6.53;;;;;;;-1.27;73.73;100802.49;1749782;81;21334;-71
2020/12/22 06:47:59;;;;;;;19.62;6.45;;;;;;;-1.22;73.68;100801.80;1737105;81;21574;-71
2020/12/22 06:50:45;;;;;;;21.12;6.78;;;;;;;-1.12;73.20;100798.66;1753392;81;21170;-71
2020/12/22 06:53:41;;;;;;;21.23;5.67;;;;;;;-1.07;73.15;100803.89;1754256;81;21651;-72
2020/12/22 06:56:42;;;;;;;34.27;6.05;;;;;;;-1.03;72.64;100799.33;1749349;81;21226;-69
2020/12/22 06:59:11;;;;;;;8.20;3.95;;;;;;;-1.01;72.67;100793.86;1770557;80;22332;-70
2020/12/22 07:01:47;;;;;;;15.28;6.60;;;;;;;-0.89;72.51;100799.27;1781155;80;21201;-73
2020/12/22 07:04:21;;;;;;;18.15;6.15;;;;;;;-0.75;72.26;100797.92;1788602;80;21189;-73
2020/12/22 07:06:56;;;;;;;14.90;6.30;;;;;;;-0.63;71.99;100795.23;1736940;82;21204;-74
2020/12/22 07:09:29;;;;;;;18.37;6.97;;;;;;;-0.50;71.77;100796.84;1767329;81;21186;-74
2020/12/22 07:12:11;;;;;;;13.30;5.25;;;;;;;-0.37;71.37;100786.48;1791506;80;22104;-74
2020/12/22 07:14:42;;;;;;;12.43;6.53;;;;;;;-0.30;70.97;100785.81;1736451;82;21184;-74
2020/12/22 07:17:17;;;;;;;29.77;8.18;;;;;;;-0.30;70.53;100775.58;1758872;81;21201;-71
2020/12/22 07:19:53;;;;;;;39.23;11.50;;;;;;;-0.34;70.51;100777.61;1792728;79;21162;-71
2020/12/22 07:22:25;;;;;;;29.75;7.92;;;;;;;-0.33;70.56;100775.92;1767077;81;21217;-76
2020/12/22 07:24:53;;;;;;;38.25;8.23;;;;;;;-0.33;70.60;100778.06;1792247;79;21402;-72
2020/12/22 07:27:21;;;;;;;10.40;4.58;;;;;;;-0.39;70.09;100774.08;1767049;81;21881;-72
2020/12/22 07:29:49;;;;;;;16.48;5.45;;;;;;;-0.48;70.37;100766.21;1724354;82;21198;-71
2020/12/22 07:32:17;;;;;;;16.40;5.67;;;;;;;-0.51;70.46;100773.80;1783827;80;21106;-70
2020/12/22 07:34:45;;;;;;;24.45;10.90;;;;;;;-0.54;70.65;100762.22;1761819;80;21185;-74
2020/12/22 07:37:14;;;;;;;13.68;6.87;;;;;;;-0.55;70.72;100766.47;1768429;81;21201;-73
2020/12/22 07:39:41;;;;;;;9.10;4.83;;;;;;;-0.56;70.91;100769.85;1792530;79;21185;-71
2020/12/22 07:42:15;;;;;;;23.75;5.42;;;;;;;-0.54;70.98;100766.05;1768706;81;21209;-77
2020/12/22 07:44:46;;;;;;;8.98;4.70;;;;;;;-0.50;70.91;100774.25;1768240;81;21185;-72
2020/12/22 07:47:15;;;;;;;8.35;3.42;;;;;;;-0.43;70.94;100767.19;1768502;81;21283;-73
2020/12/22 07:49:45;;;;;;;11.35;4.37;;;;;;;-0.37;70.69;100758.36;1792881;79;21353;-75
2020/12/22 07:52:16;;;;;;;12.82;5.10;;;;;;;-0.40;69.98;100760.88;1769057;81;21177;-79
2020/12/22 07:55:02;;;;;;;7.33;4.12;;;;;;;-0.48;70.07;100765.80;1731519;82;21606;-74
2020/12/22 07:57:30;;;;;;;11.43;3.92;;;;;;;-0.54;70.31;100758.39;1722824;83;21233;-72
2020/12/22 08:00:06;;;;;;;16.62;5.45;;;;;;;-0.56;69.83;100756.20;1746100;81;21184;-74
2020/12/22 08:02:34;;;;;;;17.67;5.78;;;;;;;-0.64;69.95;100753.48;1749412;81;21333;-72
2020/12/22 08:05:13;;;;;;;14.73;5.65;;;;;;;-0.62;70.14;100750.56;1751472;81;21121;-81
2020/12/22 08:07:45;;;;;;;12.78;3.30;;;;;;;-0.59;70.25;100754.44;1748772;81;21251;-76
2020/12/22 08:10:13;;;;;;;11.53;3.27;;;;;;;-0.48;70.28;100744.48;1749458;81;21238;-74
2020/12/22 08:12:43;;;;;;;17.12;4.33;;;;;;;-0.39;69.98;100744.27;1748854;81;21513;-73
2020/12/22 08:15:13;;;;;;;19.92;4.85;;;;;;;-0.33;70.02;100740.13;1748891;81;21294;-72
2020/12/22 08:17:42;;;;;;;10.58;3.30;;;;;;;-0.24;69.86;100738.66;1733614;82;21245;-75
2020/12/22 08:20:12;;;;;;;51.53;12.53;;;;;;;-0.15;69.40;100738.84;1733737;82;21115;-81
2020/12/22 08:22:43;;;;;;;10.43;3.85;;;;;;;-0.13;69.11;100743.58;1735707;82;21169;-74
2020/12/22 08:25:11;;;;;;;18.55;4.83;;;;;;;-0.11;69.18;100744.89;1743603;81;21206;-76
2020/12/22 08:27:41;;;;;;;20.17;4.33;;;;;;;-0.07;69.28;100737.33;1749135;81;21591;-72
2020/12/22 08:30:18;;;;;;;16.55;3.75;;;;;;;-0.02;69.44;100736.16;1731049;81;21641;-72
2020/12/22 08:32:46;;;;;;;7.37;3.33;;;;;;;0.10;69.45;100736.82;1727687;82;21201;-74
2020/12/22 08:35:17;;;;;;;8.88;3.98;;;;;;;0.21;68.77;100735.33;1727344;82;21201;-79
2020/12/22 08:37:44;;;;;;;14.33;4.30;;;;;;;0.19;68.63;100724.23;1703174;82;21193;-79
2020/12/22 08:40:27;;;;;;;10.10;3.30;;;;;;;0.23;68.64;100717.03;1727538;82;21376;-70
2020/12/22 08:42:55;;;;;;;17.45;4.12;;;;;;;0.27;68.47;100717.14;1729882;82;21138;-70
2020/12/22 08:45:22;;;;;;;17.55;5.72;;;;;;;0.29;68.56;100721.01;1730168;82;21206;-71
2020/12/22 08:47:53;;;;;;;6.17;3.52;;;;;;;0.37;68.72;100711.80;1733478;81;21212;-71
2020/12/22 08:50:21;;;;;;;17.25;4.12;;;;;;;0.48;68.55;100715.41;1759101;81;21206;-77
2020/12/22 08:52:51;;;;;;;27.15;4.87;;;;;;;0.59;68.35;100712.66;1752352;81;21272;-78
2020/12/22 08:55:19;;;;;;;22.27;4.53;;;;;;;0.65;67.76;100707.63;1746263;81;21174;-76
2020/12/22 08:57:47;;;;;;;23.60;5.12;;;;;;;0.64;67.35;100709.73;1732595;81;21257;-72
2020/12/22 09:00:24;;;;;;;10.75;3.55;;;;;;;0.63;67.39;100698.19;1737251;81;21225;-73
2020/12/22 09:02:52;;;;;;;6.85;3.60;;;;;;;0.58;67.35;100697.27;1755205;81;21213;-74
2020/12/22 09:05:20;;;;;;;16.90;4.47;;;;;;;0.57;67.30;100692.56;1754461;81;22396;-73
2020/12/22 09:07:58;;;;;;;31.00;5.78;;;;;;;0.56;67.35;100691.25;1754315;81;21939;-74
2020/12/22 09:10:26;;;;;;;33.70;5.85;;;;;;;0.55;67.41;100695.51;1754628;81;21193;-74
2020/12/22 09:12:55;;;;;;;11.03;3.65;;;;;;;0.53;67.14;100693.33;1758090;81;21583;-74
2020/12/22 09:15:24;;;;;;;11.35;3.55;;;;;;;0.45;67.37;100697.44;1758746;81;21063;-75
2020/12/22 09:18:15;;;;;;;19.20;5.10;;;;;;;0.44;67.64;100684.19;1729205;81;21643;-74
2020/12/22 09:21:22;;;;;;;13.80;3.90;;;;;;;0.49;67.73;100687.70;1758910;81;21480;-74
2020/12/22 09:24:07;;;;;;;10.38;3.70;;;;;;;0.63;67.55;100672.17;1766377;79;22828;-76
2020/12/22 09:26:35;;;;;;;17.85;4.00;;;;;;;0.62;67.45;100675.98;1721186;82;21453;-76
2020/12/22 09:29:13;;;;;;;13.10;3.60;;;;;;;0.62;67.52;100664.45;1765354;80;21376;-75
2020/12/22 09:31:46;;;;;;;28.60;5.95;;;;;;;0.66;67.54;100675.20;1721752;82;21172;-66
2020/12/22 09:35:06;;;;;;;30.27;6.80;;;;;;;0.67;67.68;100669.25;1739681;80;21123;-79
2020/12/22 09:37:40;;;;;;;17.82;5.08;;;;;;;0.72;67.82;100669.34;1749187;80;21202;-78
2020/12/22 09:40:08;;;;;;;13.40;5.85;;;;;;;0.75;67.80;100662.58;1706703;84;21838;-80
2020/12/22 09:42:50;;;;;;;14.83;4.70;;;;;;;0.83;67.62;100661.41;1702280;82;21223;-75
2020/12/22 09:45:33;;;;;;;16.73;4.90;;;;;;;0.83;67.59;100660.13;1672526;85;21882;-81
2020/12/22 09:48:31;;;;;;;25.10;5.92;;;;;;;0.78;67.73;100659.20;1672671;84;21175;-77
2020/12/22 09:51:28;;;;;;;12.93;5.35;;;;;;;0.80;67.95;100652.41;1675718;84;21211;-72
2020/12/22 09:54:23;;;;;;;11.73;6.22;;;;;;;0.83;68.02;100654.59;1656111;84;21631;-78
2020/12/22 09:56:55;;;;;;;15.40;6.87;;;;;;;0.85;68.17;100650.77;1673193;85;21387;-74
2020/12/22 09:59:23;;;;;;;18.50;8.78;;;;;;;0.90;68.22;100652.58;1674573;84;21892;-74
2020/12/22 10:01:51;;;;;;;31.40;8.88;;;;;;;0.90;68.22;100644.89;1691641;82;21134;-76
2020/12/22 10:04:20;;;;;;;19.87;10.05;;;;;;;0.87;67.96;100631.17;1698083;84;21690;-72
2020/12/22 10:06:56;;;;;;;16.73;8.30;;;;;;;0.86;68.23;100635.43;1697748;82;21214;-76
2020/12/22 10:09:37;;;;;;;10.78;5.83;;;;;;;0.86;68.17;100636.71;1700762;82;21175;-71
2020/12/22 10:12:05;;;;;;;30.17;7.97;;;;;;;0.85;68.20;100620.04;1729600;82;21674;-74
2020/12/22 10:14:34;;;;;;;11.88;5.92;;;;;;;0.86;68.21;100617.50;1705276;83;21198;-73
2020/12/22 10:17:03;;;;;;;17.15;6.97;;;;;;;0.86;68.35;100611.10;1708776;82;21237;-71
2020/12/22 10:19:31;;;;;;;13.13;6.58;;;;;;;0.91;68.28;100602.22;1704585;84;21245;-73
2020/12/22 10:21:59;;;;;;;15.13;6.45;;;;;;;0.90;68.34;100603.91;1705916;84;21400;-72
2020/12/22 10:24:30;;;;;;;35.23;9.18;;;;;;;0.86;68.42;100598.30;1711235;82;21189;-74
2020/12/22 10:27:01;;;;;;;16.70;7.58;;;;;;;0.83;68.71;100596.96;1683852;82;21160;-73
2020/12/22 10:29:33;;;;;;;18.00;7.25;;;;;;;0.80;68.77;100595.63;1688998;83;21797;-71
2020/12/22 10:32:02;;;;;;;21.15;8.50;;;;;;;0.81;68.90;100600.33;1691534;84;21662;-74
2020/12/22 10:34:30;;;;;;;34.73;9.20;;;;;;;0.89;69.01;100589.80;1692317;84;21215;-72
2020/12/22 10:37:00;;;;;;;17.67;8.18;;;;;;;0.94;69.10;100590.32;1692187;83;21082;-76
2020/12/22 10:39:29;;;;;;;11.78;7.42;;;;;;;0.93;68.87;100580.91;1692549;83;21101;-72
2020/12/22 10:41:58;;;;;;;23.83;8.05;;;;;;;0.98;68.89;100583.55;1692461;84;21677;-74
2020/12/22 10:44:26;;;;;;;13.40;8.30;;;;;;;1.04;68.74;100581.06;1693526;83;21066;-74
2020/12/22 10:46:54;;;;;;;15.53;7.67;;;;;;;1.07;68.58;100574.70;1693275;83;21217;-74
2020/12/22 10:49:21;;;;;;;14.78;7.42;;;;;;;1.12;68.39;100574.77;1693144;83;21589;-74
2020/12/22 10:51:55;;;;;;;17.50;8.50;;;;;;;1.14;68.27;100576.52;1692358;84;21286;-75
2020/12/22 10:54:23;;;;;;;10.43;7.67;;;;;;;1.17;68.04;100580.84;1692445;83;21617;-74
2020/12/22 10:56:52;;;;;;;20.45;8.25;;;;;;;1.16;68.20;100576.55;1692348;83;21581;-75
2020/12/22 10:59:21;;;;;;;18.00;9.45;;;;;;;1.19;68.12;100580.44;1692251;83;21394;-75
2020/12/22 11:01:51;;;;;;;11.73;6.75;;;;;;;1.21;68.11;100571.91;1692158;84;21100;-76
2020/12/22 11:04:19;;;;;;;22.87;9.18;;;;;;;1.20;68.17;100567.62;1705527;83;21090;-76
2020/12/22 11:07:07;;;;;;;22.20;8.65;;;;;;;1.21;68.10;100562.94;1692206;83;21102;-74
2020/12/22 11:09:43;;;;;;;14.68;8.55;;;;;;;1.24;68.24;100562.98;1691960;83;21070;-74
2020/12/22 11:12:19;;;;;;;17.55;9.75;;;;;;;1.24;67.99;100555.30;1664165;84;22376;-76
2020/12/22 11:15:04;;;;;;;14.30;8.15;;;;;;;1.24;68.13;100558.27;1683899;83;21183;-78
2020/12/22 11:17:34;;;;;;;21.62;8.33;;;;;;;1.24;67.86;100554.02;1700244;83;21144;-76
2020/12/22 11:20:11;;;;;;;10.10;7.03;;;;;;;1.16;67.49;100545.37;1703248;84;21150;-71
2020/12/22 11:22:40;;;;;;;15.83;9.25;;;;;;;1.09;67.56;100539.72;1703358;83;21247;-72
2020/12/22 11:25:10;;;;;;;23.52;10.00;;;;;;;1.06;67.63;100537.53;1719766;82;21168;-73
2020/12/22 11:27:38;;;;;;;33.28;12.35;;;;;;;1.03;67.82;100535.36;1720360;82;21497;-71
2020/12/22 11:30:09;;;;;;;9.18;7.40;;;;;;;0.98;67.74;100543.42;1720853;82;21087;-70
2020/12/22 11:32:37;;;;;;;15.10;7.05;;;;;;;0.94;67.80;100536.95;1721270;83;21075;-69
2020/12/22 11:35:05;;;;;;;23.15;11.35;;;;;;;0.95;67.83;100528.02;1721269;83;21134;-72
2020/12/22 11:37:36;;;;;;;22.13;9.93;;;;;;;0.96;67.77;100525.03;1721274;82;21381;-70